Time;durP1;ratioP1;P1;durP2;ratioP2;P2;SDS_P1;SDS_P2;PMS_P1;PMS_P2;Temp;Humidity;BMP_temperature;BMP_pressure;BME280_temperature;BME280_humidity;BME280_pressure;Samples;Min_cycle;Max_cycle;Signal;HPM_P1;HPM_P2
2023/07/09 00:01:02;;;;;;;6.93;4.65;;;22.90;97.80;;;;;;4220617;28;20040;-91
2023/07/09 00:03:03;;;;;;;7.95;3.70;;;22.90;97.90;;;;;;4222151;28;20032;-91
2023/07/09 00:05:05;;;;;;;7.95;4.47;;;22.80;98.00;;;;;;4199846;28;20133;-92
2023/07/09 00:07:17;;;;;;;6.43;4.10;;;22.80;98.10;;;;;;4199614;28;20036;-91
2023/07/09 00:09:21;;;;;;;5.40;4.07;;;22.80;98.50;;;;;;4215190;28;20087;-91
2023/07/09 00:11:24;;;;;;;6.68;4.50;;;22.70;98.40;;;;;;4198507;28;20091;-91
2023/07/09 00:13:27;;;;;;;9.45;4.80;;;22.70;98.50;;;;;;4198447;28;20520;-91
2023/07/09 00:15:30;;;;;;;7.85;4.30;;;22.70;98.50;;;;;;4198645;28;20127;-91
2023/07/09 00:17:37;;;;;;;9.20;4.20;;;22.60;98.80;;;;;;4199119;28;20095;-92
2023/07/09 00:19:45;;;;;;;9.55;4.13;;;22.60;98.90;;;;;;4198602;28;20504;-92
2023/07/09 00:21:49;;;;;;;8.15;4.78;;;22.60;99.10;;;;;;4216300;28;20082;-92
2023/07/09 00:23:50;;;;;;;7.90;4.00;;;22.60;99.00;;;;;;4216532;28;20072;-92
2023/07/09 00:25:51;;;;;;;11.30;5.10;;;22.50;99.20;;;;;;4218435;28;20040;-92
2023/07/09 00:27:52;;;;;;;7.90;4.60;;;22.80;99.40;;;;;;4200686;28;20050;-91
2023/07/09 00:29:53;;;;;;;8.15;4.50;;;22.50;99.60;;;;;;4216667;28;20447;-91
2023/07/09 00:31:54;;;;;;;9.40;4.20;;;22.50;99.70;;;;;;4217542;28;20457;-91
2023/07/09 00:33:55;;;;;;;8.68;4.60;;;22.40;99.70;;;;;;4216176;28;20048;-90
2023/07/09 00:35:57;;;;;;;9.20;4.28;;;22.40;99.90;;;;;;4215242;28;20046;-90
2023/07/09 00:38:00;;;;;;;6.13;4.15;;;22.40;99.90;;;;;;4216492;28;20511;-90
2023/07/09 00:40:02;;;;;;;11.02;5.85;;;22.40;99.90;;;;;;4218065;28;20791;-91
2023/07/09 00:42:03;;;;;;;7.53;4.70;;;22.30;99.90;;;;;;4218125;28;20044;-92
2023/07/09 00:44:33;;;;;;;9.13;4.50;;;22.20;99.90;;;;;;4214576;28;20079;-92
2023/07/09 00:46:34;;;;;;;7.13;3.97;;;22.20;99.90;;;;;;4225451;28;20032;-92
2023/07/09 00:48:59;;;;;;;8.00;4.40;;;22.20;99.90;;;;;;4202676;28;20040;-92
2023/07/09 00:51:01;;;;;;;8.65;4.90;;;22.20;99.90;;;;;;4201795;28;20052;-92
2023/07/09 00:53:18;;;;;;;7.32;4.10;;;22.10;99.90;;;;;;4201904;28;20104;-91
2023/07/09 00:55:25;;;;;;;9.68;4.50;;;22.10;99.90;;;;;;4201075;28;20040;-91
2023/07/09 00:57:27;;;;;;;6.70;4.35;;;22.00;99.90;;;;;;4203459;28;20051;-91
2023/07/09 00:59:31;;;;;;;7.30;4.72;;;22.00;99.90;;;;;;4218949;28;20051;-91
2023/07/09 01:01:34;;;;;;;9.85;4.68;;;22.00;99.90;;;;;;4217750;28;20405;-91
2023/07/09 01:03:43;;;;;;;6.63;5.10;;;22.00;99.90;;;;;;4185611;28;20064;-91
2023/07/09 01:05:51;;;;;;;7.03;4.50;;;21.90;99.90;;;;;;4199968;28;20044;-92
2023/07/09 01:07:53;;;;;;;9.95;4.50;;;22.00;99.90;;;;;;4217801;28;20055;-91
2023/07/09 01:09:58;;;;;;;6.80;4.10;;;21.90;99.90;;;;;;4218392;28;20044;-91
2023/07/09 01:12:00;;;;;;;8.07;4.47;;;21.90;99.90;;;;;;4217426;28;20040;-91
2023/07/09 01:14:05;;;;;;;7.72;4.90;;;21.90;99.90;;;;;;4217836;28;20082;-91
2023/07/09 01:16:06;;;;;;;9.63;5.18;;;21.80;99.90;;;;;;4217394;28;20473;-91
2023/07/09 01:18:09;;;;;;;7.07;4.30;;;21.80;99.90;;;;;;4217156;28;20044;-91
2023/07/09 01:20:20;;;;;;;6.13;4.60;;;21.80;99.90;;;;;;4216508;28;20048;-91
2023/07/09 01:22:22;;;;;;;9.00;4.82;;;21.80;99.90;;;;;;4218125;28;20036;-91
2023/07/09 01:24:48;;;;;;;8.55;4.85;;;21.80;99.90;;;;;;4201208;28;20055;-91
2023/07/09 01:26:51;;;;;;;6.85;4.63;;;21.70;99.90;;;;;;4217841;28;20051;-91
2023/07/09 01:28:53;;;;;;;8.40;5.40;;;21.70;99.90;;;;;;4215708;28;20412;-91
2023/07/09 01:30:56;;;;;;;8.73;4.93;;;21.80;99.90;;;;;;4217090;28;20534;-90
2023/07/09 01:32:58;;;;;;;13.50;5.13;;;21.70;99.90;;;;;;4215578;28;20440;-91
2023/07/09 01:35:06;;;;;;;15.05;4.72;;;21.70;99.90;;;;;;4216806;28;20055;-91
2023/07/09 01:37:08;;;;;;;6.70;4.70;;;21.70;99.90;;;;;;4200083;28;20409;-91
2023/07/09 01:39:10;;;;;;;9.02;5.10;;;21.60;99.90;;;;;;4200504;28;20105;-92
2023/07/09 01:41:13;;;;;;;11.02;5.18;;;21.60;99.90;;;;;;4219093;28;20032;-91
2023/07/09 01:43:14;;;;;;;10.05;4.93;;;21.60;99.90;;;;;;4200042;28;20076;-92
2023/07/09 01:45:16;;;;;;;7.78;4.60;;;21.50;99.90;;;;;;4217082;28;20100;-92
2023/07/09 01:47:19;;;;;;;7.00;4.68;;;21.50;99.90;;;;;;4216620;28;20051;-91
2023/07/09 01:49:20;;;;;;;7.05;4.65;;;21.50;99.90;;;;;;4216914;28;20496;-92
2023/07/09 01:51:24;;;;;;;6.63;4.50;;;21.50;99.90;;;;;;4199417;28;20045;-91
2023/07/09 01:53:26;;;;;;;8.57;4.80;;;21.50;99.90;;;;;;4217156;28;20488;-91
2023/07/09 01:55:29;;;;;;;10.60;5.43;;;21.50;99.90;;;;;;4217577;28;20062;-92
2023/07/09 01:57:34;;;;;;;6.43;4.90;;;21.40;99.90;;;;;;4215534;28;20044;-92
2023/07/09 01:59:41;;;;;;;9.77;5.15;;;21.40;99.90;;;;;;4200011;28;20110;-91
2023/07/09 02:01:42;;;;;;;8.18;5.13;;;21.40;99.90;;;;;;4216475;28;20055;-92
2023/07/09 02:03:43;;;;;;;7.90;5.05;;;21.40;99.90;;;;;;4199965;28;20044;-91
2023/07/09 02:05:44;;;;;;;8.77;4.78;;;21.40;99.90;;;;;;4217412;28;20108;-90
2023/07/09 02:07:45;;;;;;;11.75;6.05;;;21.30;99.90;;;;;;4198125;28;20103;-91
2023/07/09 02:09:46;;;;;;;8.82;5.10;;;21.30;99.90;;;;;;4199042;28;20052;-92
2023/07/09 02:11:48;;;;;;;9.23;5.43;;;21.30;99.90;;;;;;4198430;28;20080;-93
2023/07/09 02:13:51;;;;;;;9.05;5.13;;;21.30;99.90;;;;;;4198921;28;20516;-93
2023/07/09 02:15:53;;;;;;;8.23;5.43;;;21.30;99.90;;;;;;4198689;28;20127;-92
2023/07/09 02:17:54;;;;;;;9.10;5.60;;;21.30;99.90;;;;;;4198858;28;20527;-92
2023/07/09 02:19:56;;;;;;;11.82;4.85;;;21.20;99.90;;;;;;4199064;28;20045;-92
2023/07/09 02:21:58;;;;;;;7.40;5.00;;;21.20;99.90;;;;;;4215205;28;20044;-92
2023/07/09 02:24:06;;;;;;;11.18;5.03;;;21.20;99.90;;;;;;4200451;28;20072;-92
2023/07/09 02:26:08;;;;;;;9.98;5.28;;;21.20;99.90;;;;;;4199401;28;20032;-92
2023/07/09 02:28:09;;;;;;;6.13;4.60;;;21.10;99.90;;;;;;4216807;28;20052;-93
2023/07/09 02:30:11;;;;;;;7.78;5.43;;;21.10;99.90;;;;;;4199713;28;20473;-93
2023/07/09 02:32:22;;;;;;;6.82;4.63;;;21.10;99.90;;;;;;4216320;28;20043;-93
2023/07/09 02:34:25;;;;;;;7.80;5.60;;;21.10;99.90;;;;;;4200660;28;20506;-92
2023/07/09 02:36:27;;;;;;;6.25;4.97;;;21.10;99.90;;;;;;4229674;28;20032;-92
2023/07/09 02:38:58;;;;;;;8.35;5.07;;;21.00;99.90;;;;;;4206907;28;20405;-93
2023/07/09 02:41:00;;;;;;;9.05;5.30;;;21.00;99.90;;;;;;4218187;28;20044;-92
2023/07/09 02:43:03;;;;;;;15.05;5.90;;;21.00;99.90;;;;;;4200185;28;20108;-92
2023/07/09 02:45:04;;;;;;;10.35;5.43;;;20.90;99.90;;;;;;4200132;28;20821;-92
2023/07/09 02:47:06;;;;;;;8.82;5.55;;;20.90;99.90;;;;;;4215643;28;20050;-92
2023/07/09 02:49:11;;;;;;;11.40;6.13;;;20.90;99.90;;;;;;4215343;28;20047;-92
2023/07/09 02:51:12;;;;;;;10.68;5.95;;;20.80;99.90;;;;;;4215875;28;20040;-92
2023/07/09 02:53:13;;;;;;;7.88;5.30;;;20.80;99.90;;;;;;4215385;28;20048;-92
2023/07/09 02:55:15;;;;;;;6.78;5.20;;;20.80;99.90;;;;;;4215424;28;20040;-92
2023/07/09 02:57:16;;;;;;;9.60;6.50;;;20.70;99.90;;;;;;4198258;28;20061;-91
2023/07/09 02:59:17;;;;;;;10.35;6.55;;;20.70;99.90;;;;;;4198349;28;20060;-92
2023/07/09 03:01:18;;;;;;;7.28;4.97;;;20.70;99.90;;;;;;4198684;28;20048;-92
2023/07/09 03:03:20;;;;;;;8.40;5.00;;;20.70;99.90;;;;;;4198801;28;20091;-92
2023/07/09 03:05:20;;;;;;;9.35;6.00;;;20.70;99.90;;;;;;4198510;28;20374;-91
2023/07/09 03:07:24;;;;;;;8.73;5.10;;;20.60;99.90;;;;;;4198800;28;20055;-92
2023/07/09 03:09:25;;;;;;;12.48;6.03;;;20.60;99.90;;;;;;4215432;28;20040;-92
2023/07/09 03:11:36;;;;;;;11.70;5.10;;;20.60;99.90;;;;;;4216991;28;20044;-92
2023/07/09 03:13:39;;;;;;;10.75;6.00;;;20.60;99.90;;;;;;4215498;28;20106;-92
2023/07/09 03:15:40;;;;;;;10.48;5.47;;;20.60;99.90;;;;;;4199050;28;20083;-92
2023/07/09 03:17:41;;;;;;;8.05;5.65;;;20.60;99.90;;;;;;4216060;28;20036;-92
2023/07/09 03:19:42;;;;;;;18.73;6.68;;;20.60;99.90;;;;;;4215373;28;20059;-92
2023/07/09 03:21:44;;;;;;;13.52;6.47;;;20.50;99.90;;;;;;4215925;28;20477;-92
2023/07/09 03:23:51;;;;;;;13.70;6.47;;;20.50;99.90;;;;;;4199469;28;20055;-92
2023/07/09 03:25:53;;;;;;;8.48;5.45;;;20.50;99.90;;;;;;4215685;28;20133;-93
2023/07/09 03:27:55;;;;;;;9.18;5.65;;;20.50;99.90;;;;;;4199288;28;20131;-93
2023/07/09 03:29:56;;;;;;;12.63;5.90;;;20.50;99.90;;;;;;4199339;28;20064;-92
2023/07/09 03:31:57;;;;;;;9.13;5.40;;;20.50;99.90;;;;;;4199488;28;20048;-92
2023/07/09 03:33:59;;;;;;;10.20;5.75;;;20.50;99.90;;;;;;4199965;28;20463;-92
2023/07/09 03:36:04;;;;;;;8.80;5.45;;;20.50;99.90;;;;;;4215495;28;20063;-92
2023/07/09 03:38:12;;;;;;;11.43;5.80;;;20.50;99.90;;;;;;4197997;28;20049;-92
2023/07/09 03:40:23;;;;;;;8.75;6.07;;;20.50;99.90;;;;;;4198401;28;20425;-92
2023/07/09 03:42:25;;;;;;;12.13;5.97;;;20.50;99.90;;;;;;4199446;28;20841;-92
2023/07/09 03:44:25;;;;;;;8.90;5.18;;;20.50;99.90;;;;;;4216461;28;20051;-92
2023/07/09 03:46:27;;;;;;;9.82;5.95;;;20.50;99.90;;;;;;4199096;28;20041;-93
2023/07/09 03:48:29;;;;;;;11.00;5.57;;;20.40;99.90;;;;;;4198616;28;20048;-92
2023/07/09 03:50:30;;;;;;;9.90;5.78;;;20.40;99.90;;;;;;4198914;28;20049;-91
2023/07/09 03:52:37;;;;;;;10.57;5.85;;;20.50;99.90;;;;;;4198718;28;20560;-91
2023/07/09 03:54:38;;;;;;;6.60;4.78;;;20.40;99.90;;;;;;4198688;28;20049;-90
2023/07/09 03:56:39;;;;;;;8.48;5.72;;;20.50;99.90;;;;;;4199013;28;20053;-91
2023/07/09 03:58:40;;;;;;;13.55;5.25;;;20.50;99.90;;;;;;4215397;28;20051;-91
2023/07/09 04:00:41;;;;;;;8.63;5.30;;;20.50;99.90;;;;;;4200574;28;20040;-90
2023/07/09 04:02:43;;;;;;;9.93;5.80;;;20.50;99.90;;;;;;4199102;28;20044;-91
2023/07/09 04:04:44;;;;;;;9.68;5.30;;;20.50;99.90;;;;;;4215075;28;20492;-92
2023/07/09 04:06:46;;;;;;;13.50;6.03;;;20.40;99.90;;;;;;4198297;28;20127;-92
2023/07/09 04:08:55;;;;;;;8.40;5.40;;;20.40;99.90;;;;;;4215142;28;20059;-91
2023/07/09 04:11:03;;;;;;;9.13;5.68;;;20.40;99.90;;;;;;4182552;28;20883;-91
2023/07/09 04:13:06;;;;;;;9.02;5.47;;;20.40;99.90;;;;;;4215457;28;20041;-93
2023/07/09 04:15:08;;;;;;;10.18;5.57;;;20.40;99.90;;;;;;4200772;28;20047;-92
2023/07/09 04:17:09;;;;;;;9.00;5.63;;;20.50;99.90;;;;;;4220331;28;20044;-91
2023/07/09 04:19:16;;;;;;;10.18;5.60;;;20.50;99.90;;;;;;4218760;28;20052;-91
2023/07/09 04:21:24;;;;;;;11.20;5.57;;;20.50;99.90;;;;;;4219180;28;20064;-92
2023/07/09 04:23:31;;;;;;;9.35;5.13;;;20.50;99.90;;;;;;4219155;28;20032;-91
2023/07/09 04:25:33;;;;;;;8.52;4.85;;;20.60;99.90;;;;;;4202412;28;20060;-92
2023/07/09 04:27:34;;;;;;;9.55;5.65;;;20.60;99.90;;;;;;4210459;28;20029;-92
2023/07/09 04:29:59;;;;;;;10.32;5.35;;;20.60;99.90;;;;;;4229444;28;20476;-91
2023/07/09 04:32:00;;;;;;;10.20;5.45;;;20.60;99.90;;;;;;4202257;28;20045;-91
2023/07/09 04:34:04;;;;;;;8.50;5.75;;;20.60;99.90;;;;;;4234964;28;20442;-91
2023/07/09 04:36:08;;;;;;;8.00;4.95;;;20.60;99.90;;;;;;4216907;28;20076;-91
2023/07/09 04:38:09;;;;;;;10.82;6.03;;;20.60;99.90;;;;;;4218209;28;20189;-91
2023/07/09 04:40:13;;;;;;;11.70;5.82;;;20.70;99.90;;;;;;4201047;28;20040;-92
2023/07/09 04:42:16;;;;;;;7.45;5.25;;;20.70;99.90;;;;;;4201773;28;20044;-91
2023/07/09 04:44:17;;;;;;;11.40;5.68;;;20.70;99.90;;;;;;4219008;28;20048;-91
2023/07/09 04:46:18;;;;;;;9.30;5.55;;;20.70;99.90;;;;;;4200640;28;20129;-91
2023/07/09 04:48:19;;;;;;;13.30;5.95;;;20.70;99.90;;;;;;4202278;28;20588;-91
2023/07/09 04:50:25;;;;;;;12.95;6.10;;;20.80;99.90;;;;;;4220346;28;20044;-91
2023/07/09 04:52:27;;;;;;;8.45;5.05;;;20.80;99.90;;;;;;4202205;28;20048;-91
2023/07/09 04:54:35;;;;;;;10.88;5.70;;;20.80;99.90;;;;;;4216806;28;20043;-91
2023/07/09 04:56:37;;;;;;;9.20;5.45;;;20.90;99.90;;;;;;4217370;28;20092;-91
2023/07/09 04:58:46;;;;;;;7.93;4.65;;;20.90;99.90;;;;;;4201315;28;20044;-92
2023/07/09 05:01:01;;;;;;;11.57;4.88;;;21.00;99.90;;;;;;4199393;28;20056;-91
2023/07/09 05:03:03;;;;;;;16.42;6.10;;;21.00;99.90;;;;;;4202442;28;20051;-91
2023/07/09 05:05:05;;;;;;;10.63;5.18;;;21.00;99.90;;;;;;4200307;28;20125;-91
2023/07/09 05:07:07;;;;;;;9.32;5.25;;;21.00;99.90;;;;;;4200111;28;20044;-92
2023/07/09 05:09:08;;;;;;;7.40;5.07;;;21.10;99.90;;;;;;4202177;28;20564;-92
2023/07/09 05:11:11;;;;;;;8.73;5.22;;;21.20;99.90;;;;;;4217137;28;20052;-91
2023/07/09 05:13:13;;;;;;;9.32;5.10;;;21.20;99.90;;;;;;4200120;28;20044;-91
2023/07/09 05:15:15;;;;;;;10.35;5.25;;;21.30;99.90;;;;;;4217148;28;20116;-91
2023/07/09 05:17:18;;;;;;;11.13;5.43;;;21.30;99.90;;;;;;4199647;28;20044;-90
2023/07/09 05:19:19;;;;;;;7.72;5.47;;;21.40;99.90;;;;;;4216682;28;20044;-92
2023/07/09 05:21:22;;;;;;;9.35;5.13;;;21.40;99.90;;;;;;4216098;28;20135;-91
2023/07/09 05:23:24;;;;;;;13.73;5.80;;;21.50;99.90;;;;;;4221178;28;20044;-91
2023/07/09 05:25:33;;;;;;;12.13;6.15;;;21.50;99.90;;;;;;4201593;28;20044;-93
2023/07/09 05:27:40;;;;;;;11.73;4.97;;;21.60;99.90;;;;;;4200359;28;20055;-93
2023/07/09 05:29:44;;;;;;;8.52;4.78;;;21.70;99.90;;;;;;4218388;28;20380;-93
2023/07/09 05:31:46;;;;;;;9.07;4.68;;;21.80;99.90;;;;;;4198848;28;20048;-93
2023/07/09 05:33:47;;;;;;;10.25;5.32;;;21.80;99.90;;;;;;4218854;28;20431;-90
2023/07/09 05:35:53;;;;;;;8.60;5.60;;;21.80;99.90;;;;;;4199605;28;20047;-93
2023/07/09 05:37:55;;;;;;;7.82;5.22;;;21.90;99.90;;;;;;4217238;28;20055;-91
2023/07/09 05:39:57;;;;;;;9.15;5.38;;;22.00;99.90;;;;;;4200490;28;20751;-91
2023/07/09 05:41:59;;;;;;;9.15;4.70;;;22.00;99.90;;;;;;4217084;28;20404;-91
2023/07/09 05:44:02;;;;;;;11.52;5.10;;;22.20;99.90;;;;;;4201277;28;20444;-91
2023/07/09 05:46:05;;;;;;;12.40;6.15;;;22.20;99.90;;;;;;4216898;28;20036;-92
2023/07/09 05:48:12;;;;;;;11.25;4.90;;;22.30;99.90;;;;;;4201468;28;20117;-92
2023/07/09 05:50:19;;;;;;;14.63;5.32;;;22.40;99.90;;;;;;4217677;28;20056;-93
2023/07/09 05:52:29;;;;;;;9.30;5.50;;;22.50;99.90;;;;;;4200382;28;20471;-92
2023/07/09 05:54:30;;;;;;;7.72;5.15;;;22.50;99.90;;;;;;4212593;28;20032;-85
2023/07/09 05:56:31;;;;;;;7.55;4.95;;;22.50;99.90;;;;;;4225367;28;20066;-87
2023/07/09 05:58:32;;;;;;;10.68;5.60;;;22.60;99.90;;;;;;4206746;28;20056;-86
2023/07/09 06:00:33;;;;;;;7.57;5.10;;;22.70;99.90;;;;;;4208958;28;20068;-85
2023/07/09 06:02:33;;;;;;;9.40;4.63;;;22.70;99.90;;;;;;4207007;28;20126;-86
2023/07/09 06:04:34;;;;;;;7.50;4.88;;;22.80;99.90;;;;;;4215872;28;20047;-86
2023/07/09 06:06:35;;;;;;;12.55;5.60;;;22.80;99.90;;;;;;4215563;28;20055;-86
2023/07/09 06:08:36;;;;;;;7.28;4.93;;;22.80;99.90;;;;;;4217422;28;20043;-86
2023/07/09 06:10:41;;;;;;;10.18;5.93;;;22.90;99.90;;;;;;4216112;28;20049;-85
2023/07/09 06:12:42;;;;;;;9.02;5.57;;;22.80;99.90;;;;;;4209168;28;20465;-85
2023/07/09 06:14:44;;;;;;;8.93;5.50;;;22.90;99.90;;;;;;4209466;28;20055;-85
2023/07/09 06:16:45;;;;;;;12.32;5.57;;;22.90;99.90;;;;;;4216062;28;20044;-86
2023/07/09 06:18:45;;;;;;;9.30;5.60;;;22.80;99.90;;;;;;4198009;28;20141;-85
2023/07/09 06:20:58;;;;;;;11.75;5.65;;;22.80;99.90;;;;;;4207907;28;20095;-85
2023/07/09 06:23:00;;;;;;;9.88;6.32;;;22.90;99.90;;;;;;4215680;28;20054;-86
2023/07/09 06:25:01;;;;;;;14.52;5.00;;;22.90;99.90;;;;;;4214547;28;20221;-86
2023/07/09 06:27:02;;;;;;;10.00;5.78;;;23.00;99.90;;;;;;4215229;28;20055;-86
2023/07/09 06:29:03;;;;;;;10.25;5.72;;;23.10;99.90;;;;;;4214682;28;20052;-85
2023/07/09 06:31:04;;;;;;;12.75;5.85;;;23.10;99.90;;;;;;4214883;28;20050;-85
2023/07/09 06:33:05;;;;;;;11.23;6.20;;;23.10;99.90;;;;;;4215755;28;20079;-85
2023/07/09 06:35:06;;;;;;;9.02;5.90;;;23.10;99.90;;;;;;4215571;28;20051;-85
2023/07/09 06:37:06;;;;;;;9.23;5.43;;;23.20;99.90;;;;;;4215093;28;20473;-85
2023/07/09 06:39:07;;;;;;;9.45;5.63;;;23.30;99.90;;;;;;4215089;28;20531;-85
2023/07/09 06:41:08;;;;;;;9.00;5.38;;;23.40;99.90;;;;;;4216551;28;20561;-85
2023/07/09 06:43:09;;;;;;;14.15;5.40;;;23.40;99.90;;;;;;4216517;28;20040;-85
2023/07/09 06:45:10;;;;;;;8.88;5.85;;;23.60;99.90;;;;;;4214653;28;20078;-86
2023/07/09 06:47:12;;;;;;;10.73;5.57;;;23.70;99.90;;;;;;4215991;28;20515;-85
2023/07/09 06:49:15;;;;;;;8.63;5.40;;;23.90;99.90;;;;;;4215361;28;20055;-86
2023/07/09 06:51:16;;;;;;;9.07;5.68;;;23.90;99.90;;;;;;4216796;28;20056;-85
2023/07/09 06:53:17;;;;;;;10.25;5.45;;;24.00;99.90;;;;;;4216310;28;20051;-85
2023/07/09 06:55:18;;;;;;;11.27;4.82;;;24.20;99.90;;;;;;4214624;28;20040;-86
2023/07/09 06:57:19;;;;;;;8.23;5.07;;;24.30;99.90;;;;;;4198148;28;20057;-85
2023/07/09 06:59:22;;;;;;;9.45;5.80;;;24.50;99.90;;;;;;4215565;28;20114;-85
2023/07/09 07:01:23;;;;;;;8.57;5.35;;;24.50;99.90;;;;;;4214660;28;20074;-85
2023/07/09 07:03:24;;;;;;;9.65;5.82;;;24.60;99.90;;;;;;4215485;28;20851;-85
2023/07/09 07:05:26;;;;;;;7.93;4.68;;;24.60;99.90;;;;;;4216070;28;20051;-86
2023/07/09 07:07:27;;;;;;;8.45;4.82;;;24.60;99.90;;;;;;4213597;28;20055;-85
2023/07/09 07:09:29;;;;;;;12.30;6.38;;;24.70;99.90;;;;;;4215809;28;20040;-85
2023/07/09 07:11:30;;;;;;;9.07;4.82;;;24.70;99.90;;;;;;4215543;28;20135;-85
2023/07/09 07:13:39;;;;;;;8.35;5.65;;;24.90;99.90;;;;;;4213925;28;20044;-85
2023/07/09 07:15:40;;;;;;;8.93;5.30;;;25.00;99.90;;;;;;4197669;28;20528;-85
2023/07/09 07:17:41;;;;;;;9.25;5.53;;;25.10;99.90;;;;;;4213381;28;20040;-86
2023/07/09 07:19:43;;;;;;;9.32;5.18;;;25.20;99.90;;;;;;4214590;28;20121;-85
2023/07/09 07:21:43;;;;;;;9.73;5.50;;;25.30;99.90;;;;;;4215357;28;20052;-86
2023/07/09 07:23:44;;;;;;;14.07;8.88;;;25.40;99.90;;;;;;4215791;28;20050;-86
2023/07/09 07:25:46;;;;;;;13.13;6.07;;;25.70;99.90;;;;;;4216162;28;20043;-85
2023/07/09 07:27:47;;;;;;;10.57;5.95;;;25.80;99.90;;;;;;4216134;28;20083;-86
2023/07/09 07:29:48;;;;;;;11.98;5.07;;;26.00;99.90;;;;;;4215799;28;20117;-86
2023/07/09 07:31:49;;;;;;;9.40;4.78;;;26.20;99.90;;;;;;4216208;28;20052;-86
2023/07/09 07:33:51;;;;;;;10.20;4.90;;;26.40;99.90;;;;;;4215956;28;20048;-86
2023/07/09 07:35:52;;;;;;;8.48;5.18;;;26.50;99.90;;;;;;4198779;28;20049;-86
2023/07/09 07:37:53;;;;;;;10.77;6.03;;;26.70;99.90;;;;;;4215216;28;20446;-86
2023/07/09 07:39:54;;;;;;;8.05;5.22;;;26.90;99.70;;;;;;4198571;28;20052;-86
2023/07/09 07:41:55;;;;;;;10.45;4.47;;;27.00;99.30;;;;;;4213660;28;20043;-85
2023/07/09 07:43:56;;;;;;;7.53;4.40;;;27.00;99.20;;;;;;4216780;28;20047;-86
2023/07/09 07:45:57;;;;;;;6.72;4.45;;;27.10;99.00;;;;;;4214853;28;20044;-85
2023/07/09 07:47:58;;;;;;;6.97;4.75;;;27.00;98.60;;;;;;4214975;28;20106;-86
2023/07/09 07:50:01;;;;;;;8.27;4.88;;;27.10;98.50;;;;;;4215534;28;20071;-86
2023/07/09 07:52:03;;;;;;;9.63;4.70;;;27.00;98.40;;;;;;4219148;28;20044;-86
2023/07/09 07:54:04;;;;;;;10.00;4.60;;;27.00;98.30;;;;;;4220445;28;20040;-85
2023/07/09 07:56:05;;;;;;;10.93;4.80;;;26.90;98.10;;;;;;4217048;28;20084;-86
2023/07/09 07:58:08;;;;;;;13.88;5.30;;;26.90;98.20;;;;;;4217913;28;20081;-86
2023/07/09 08:00:09;;;;;;;9.75;4.32;;;26.90;98.20;;;;;;4217080;28;20091;-86
2023/07/09 08:02:13;;;;;;;10.02;4.40;;;27.00;98.00;;;;;;4218300;28;20093;-86
2023/07/09 08:04:13;;;;;;;10.73;4.53;;;27.20;98.00;;;;;;4218123;28;20039;-85
2023/07/09 08:06:14;;;;;;;13.25;4.88;;;27.40;98.00;;;;;;4199793;28;20040;-87
2023/07/09 08:08:15;;;;;;;7.82;4.22;;;27.60;97.90;;;;;;4217675;28;20036;-86
2023/07/09 08:10:16;;;;;;;7.65;4.03;;;27.70;97.60;;;;;;4217880;28;20119;-86
2023/07/09 08:12:17;;;;;;;7.78;4.95;;;27.90;97.50;;;;;;4222330;28;20048;-86
2023/07/09 08:14:18;;;;;;;10.45;5.57;;;27.90;97.40;;;;;;4217855;28;20036;-86
2023/07/09 08:16:23;;;;;;;8.30;4.80;;;28.00;97.30;;;;;;4214177;28;20044;-86
2023/07/09 08:18:23;;;;;;;9.10;4.90;;;28.10;97.10;;;;;;4207676;28;20381;-84
2023/07/09 08:20:24;;;;;;;10.75;5.88;;;28.20;97.00;;;;;;4218356;28;20047;-84
2023/07/09 08:22:25;;;;;;;14.35;5.32;;;28.30;97.20;;;;;;4214089;28;20043;-84
2023/07/09 08:24:26;;;;;;;8.88;5.10;;;28.40;97.10;;;;;;4214152;28;20039;-84
2023/07/09 08:26:26;;;;;;;10.95;4.80;;;28.50;96.90;;;;;;4217895;28;20047;-84
2023/07/09 08:28:27;;;;;;;13.82;5.97;;;28.70;96.80;;;;;;4199252;28;20055;-85
2023/07/09 08:30:29;;;;;;;9.13;4.45;;;28.80;96.80;;;;;;4208822;28;20503;-85
2023/07/09 08:32:31;;;;;;;11.10;5.30;;;28.90;97.20;;;;;;4217068;28;20067;-85
2023/07/09 08:34:33;;;;;;;9.10;5.00;;;29.10;97.10;;;;;;4216476;28;20040;-84
2023/07/09 08:36:34;;;;;;;8.93;5.03;;;29.00;96.70;;;;;;4216530;28;20040;-85
2023/07/09 08:38:35;;;;;;;10.75;5.05;;;29.00;96.80;;;;;;4215835;28;20078;-84
2023/07/09 08:40:49;;;;;;;9.55;4.40;;;29.10;96.80;;;;;;4217636;28;20515;-84
2023/07/09 08:42:54;;;;;;;10.10;4.95;;;29.20;96.80;;;;;;4216759;28;20040;-85
2023/07/09 08:45:07;;;;;;;8.55;5.00;;;29.20;96.90;;;;;;4215962;28;20545;-84
2023/07/09 08:47:16;;;;;;;10.00;4.75;;;29.40;97.10;;;;;;4215586;28;20040;-85
2023/07/09 08:49:29;;;;;;;14.20;5.38;;;29.60;96.40;;;;;;4216545;28;20412;-85
2023/07/09 08:51:42;;;;;;;11.57;5.10;;;29.70;96.80;;;;;;4215671;28;21042;-85
2023/07/09 08:53:55;;;;;;;14.55;5.47;;;29.80;96.20;;;;;;4200318;28;20048;-85
2023/07/09 08:55:56;;;;;;;8.98;4.70;;;29.90;96.00;;;;;;4201755;28;20056;-84
2023/07/09 08:58:04;;;;;;;12.68;5.03;;;30.10;96.40;;;;;;4215664;28;20125;-85
2023/07/09 09:00:18;;;;;;;18.23;6.00;;;30.20;96.50;;;;;;4215538;28;20480;-85
2023/07/09 09:02:41;;;;;;;11.23;5.72;;;30.50;96.40;;;;;;4215697;28;20063;-85
2023/07/09 09:04:43;;;;;;;7.50;5.35;;;30.70;96.10;;;;;;4215567;28;20114;-84
2023/07/09 09:06:49;;;;;;;11.93;5.85;;;30.90;96.10;;;;;;4222187;28;20503;-85
2023/07/09 09:09:03;;;;;;;10.95;5.40;;;31.10;95.60;;;;;;4220788;28;20048;-85
2023/07/09 09:11:07;;;;;;;8.77;5.45;;;31.10;94.70;;;;;;4216262;28;20127;-85
2023/07/09 09:13:14;;;;;;;13.40;6.03;;;31.20;94.90;;;;;;4214623;28;20048;-84
2023/07/09 09:15:18;;;;;;;11.00;5.70;;;31.40;95.00;;;;;;4215739;28;20047;-85
2023/07/09 09:17:20;;;;;;;14.23;5.57;;;31.50;94.80;;;;;;4214644;28;20059;-84
2023/07/09 09:19:27;;;;;;;9.32;5.70;;;31.60;94.60;;;;;;4214773;28;20404;-85
2023/07/09 09:21:34;;;;;;;11.27;6.00;;;31.60;94.60;;;;;;4197786;28;20053;-86
2023/07/09 09:23:44;;;;;;;11.90;5.95;;;31.60;94.80;;;;;;4198154;28;20131;-85
2023/07/09 09:25:55;;;;;;;15.20;6.60;;;31.80;94.30;;;;;;4215646;28;20039;-85
2023/07/09 09:27:55;;;;;;;12.88;6.50;;;31.80;94.20;;;;;;4215917;28;20047;-86
2023/07/09 09:29:56;;;;;;;14.50;6.60;;;31.80;94.60;;;;;;4214111;28;20052;-86
2023/07/09 09:31:59;;;;;;;11.95;6.82;;;31.90;94.80;;;;;;4215805;28;20404;-85
2023/07/09 09:34:00;;;;;;;13.98;7.55;;;32.00;95.00;;;;;;4215912;28;20040;-85
2023/07/09 09:36:04;;;;;;;14.80;7.50;;;32.10;94.70;;;;;;4215788;28;20032;-85
2023/07/09 09:38:21;;;;;;;9.55;6.63;;;32.30;94.50;;;;;;4215627;28;20147;-85
2023/07/09 09:40:23;;;;;;;16.80;7.95;;;32.50;95.10;;;;;;4214387;28;20055;-85
2023/07/09 09:42:25;;;;;;;10.40;6.60;;;32.70;94.40;;;;;;4215224;28;20123;-86
2023/07/09 09:44:29;;;;;;;10.95;6.78;;;32.90;94.20;;;;;;4215564;28;20105;-86
2023/07/09 09:46:32;;;;;;;9.50;6.55;;;33.00;93.70;;;;;;4214019;28;20531;-87
2023/07/09 09:48:33;;;;;;;14.55;6.68;;;33.10;93.70;;;;;;4215511;28;20048;-86
2023/07/09 09:50:34;;;;;;;15.50;7.60;;;33.00;93.40;;;;;;4215327;28;20064;-87
2023/07/09 09:52:35;;;;;;;13.90;7.63;;;33.00;93.60;;;;;;4213970;28;20504;-87
2023/07/09 09:54:41;;;;;;;12.70;7.07;;;33.10;93.90;;;;;;4213891;28;20058;-86
2023/07/09 09:56:43;;;;;;;15.07;6.78;;;33.00;93.50;;;;;;4196818;28;20056;-87
2023/07/09 09:58:53;;;;;;;9.93;6.25;;;33.30;93.60;;;;;;4214027;28;20109;-87
2023/07/09 10:00:59;;;;;;;10.68;6.60;;;33.40;93.70;;;;;;4215236;28;20048;-86
2023/07/09 10:03:06;;;;;;;10.15;6.78;;;33.50;93.40;;;;;;4217356;28;20133;-85
2023/07/09 10:05:21;;;;;;;10.93;7.38;;;33.70;93.20;;;;;;4199512;28;20064;-85
2023/07/09 10:07:29;;;;;;;9.65;6.03;;;33.90;92.70;;;;;;4215122;28;20071;-85
2023/07/09 10:09:50;;;;;;;13.45;6.13;;;34.00;92.80;;;;;;4214801;28;20101;-84
2023/07/09 10:12:15;;;;;;;9.02;5.85;;;34.30;92.70;;;;;;4200432;28;20044;-84
2023/07/09 10:14:31;;;;;;;10.10;5.30;;;34.50;92.10;;;;;;4215102;28;20048;-84
2023/07/09 10:16:44;;;;;;;9.57;6.07;;;34.60;92.30;;;;;;4215456;28;20044;-84
2023/07/09 10:19:12;;;;;;;9.63;5.88;;;34.80;92.00;;;;;;4214801;28;20040;-84
2023/07/09 10:21:35;;;;;;;14.80;7.13;;;34.80;91.60;;;;;;4214352;28;20044;-85
2023/07/09 10:23:38;;;;;;;13.65;6.20;;;34.80;91.30;;;;;;4202778;28;20111;-83
2023/07/09 10:25:57;;;;;;;9.98;5.82;;;34.90;91.00;;;;;;4202595;28;20488;-84
2023/07/09 10:28:06;;;;;;;9.82;6.57;;;35.00;89.70;;;;;;4214798;28;20036;-84
2023/07/09 10:30:43;;;;;;;8.90;6.03;;;35.10;89.30;;;;;;4202577;28;20047;-85
2023/07/09 10:33:10;;;;;;;9.05;5.20;;;35.30;89.00;;;;;;4214695;28;20036;-85
2023/07/09 10:35:43;;;;;;;9.63;5.80;;;35.40;86.80;;;;;;4214339;28;20052;-85
2023/07/09 10:38:13;;;;;;;16.05;6.22;;;35.60;87.80;;;;;;4199387;28;20051;-85
2023/07/09 10:40:24;;;;;;;9.25;5.72;;;35.70;87.00;;;;;;4211746;28;20043;-85
2023/07/09 10:42:33;;;;;;;10.23;6.07;;;36.00;87.10;;;;;;4209658;28;20067;-85
2023/07/09 10:44:39;;;;;;;8.85;5.65;;;35.90;86.10;;;;;;4215141;28;20126;-85